This is the latest recevied weather packets stored in our database for station/object KQ4KX. If no packets are shown the sender has not sent any weather packets the latest 1 day(s).
| Time | Temp. | Humidity | Pressure | Rain* | Wind** | Luminosity | Snow |
|---|---|---|---|---|---|---|---|
| 1778076731 | 26.67° C | 81% | 1017.7 hPa | 0 mm | - | - | - |
| 1778076694 | 26.67° C | 81% | 1017.7 hPa | 0 mm | - | - | - |
| 1778076364 | 26.11° C | 82% | 1017.6 hPa | 0 mm | - | - | - |
| 1778074444 | 25° C | 86% | 1017.7 hPa | 0 mm | - | - | - |
| 1778073814 | 24.44° C | 87% | 1017.5 hPa | 0 mm | - | - | - |
| 1778070754 | 22.78° C | 93% | 1016.9 hPa | 0 mm | - | - | - |
| 1778070454 | 22.78° C | 93% | 1016.9 hPa | 0 mm | - | - | - |
| 1778069494 | 22.22° C | 93% | 1016.9 hPa | 0 mm | - | - | - |
| 1778067934 | 21.67° C | 94% | 1016.6 hPa | 0 mm | - | - | - |
| 1778065714 | 21.11° C | 95% | 1016.4 hPa | 0 mm | - | - | - |
| 1778061934 | 21.11° C | 94% | 1016 hPa | 0 mm | - | - | - |
| 1778058814 | 21.11° C | 92% | 1015.7 hPa | 0 mm | - | - | - |
| 1778056384 | 20.56° C | 90% | 1015.7 hPa | 0 mm | - | - | - |
| 1778055754 | 20.56° C | 89% | 1015.9 hPa | 0 mm | - | - | - |
| 1778053893 | 20.56° C | 88% | 1015.9 hPa | 0 mm | - | - | - |
| 1778053293 | 20.56° C | 88% | 1015.8 hPa | 0 mm | - | - | - |
| 1778052994 | 20.56° C | 88% | 1015.8 hPa | 0 mm | - | - | - |
| 1778050773 | 20.56° C | 88% | 1016 hPa | 0 mm | - | - | - |
| 1778048854 | 20.56° C | 87% | 1016.4 hPa | 0 mm | - | - | - |
| 1778047927 | 20.56° C | 87% | 1016.4 hPa | 0 mm | - | - | - |
| 1778047294 | 20.56° C | 87% | 1016.5 hPa | 0 mm | - | - | - |
| 1778046033 | 20.56° C | 86% | 1016.5 hPa | 0 mm | - | - | - |
| 1778045373 | 20.56° C | 86% | 1016.6 hPa | 0 mm | - | - | - |
| 1778044474 | 20.56° C | 85% | 1016.7 hPa | 0 mm | - | - | - |
| 1778044173 | 20.56° C | 85% | 1016.9 hPa | 0 mm | - | - | - |
* Rain latest hour (hover to see other rain measurements)
** Current wind speed in m/s (hover to see current wind gust speed)